createdAt,value
2022-09-21T00:00:20.559Z,99676.63
2022-09-21T00:02:50.450Z,99679.63
2022-09-21T00:05:21.589Z,99673.69
2022-09-21T00:07:51.765Z,99669.94
2022-09-21T00:10:22.694Z,99674.28
2022-09-21T00:12:52.475Z,99670.28
2022-09-21T00:15:22.258Z,99657.56
2022-09-21T00:17:54.825Z,99656.84
2022-09-21T00:20:27.961Z,99653.34
2022-09-21T00:22:58.023Z,99668.59
2022-09-21T00:25:28.257Z,99671.66
2022-09-21T00:27:58.419Z,99676.28
2022-09-21T00:30:28.684Z,99681.06
2022-09-21T00:32:58.729Z,99678.72
2022-09-21T00:35:30.018Z,99684.34
2022-09-21T00:38:02.803Z,99679.75
2022-09-21T00:40:33.343Z,99679.44
2022-09-21T00:43:14.095Z,99677.69
2022-09-21T00:45:45.886Z,99677.94
2022-09-21T00:48:16.476Z,99674.56
2022-09-21T00:50:54.898Z,99662.88
2022-09-21T00:53:24.776Z,99660.59
2022-09-21T00:55:58.443Z,99661.41
2022-09-21T00:58:32.590Z,99667.34
2022-09-21T01:01:02.559Z,99665.84
2022-09-21T01:03:33.527Z,99660.16
2022-09-21T01:06:04.995Z,99644.97
2022-09-21T01:08:35.294Z,99654.06
2022-09-21T01:11:25.251Z,99642.38
2022-09-21T01:14:15.264Z,99650.75
2022-09-21T01:16:52.850Z,99651.63
2022-09-21T01:19:47.707Z,99653.09
2022-09-21T01:22:28.010Z,99639.38
2022-09-21T01:25:13.622Z,99649.84
2022-09-21T01:27:55.069Z,99643.91
2022-09-21T01:30:27.049Z,99643.19
2022-09-21T01:33:04.186Z,99649.75
2022-09-21T01:35:38.918Z,99619.19
2022-09-21T01:38:13.832Z,99638.53
2022-09-21T01:40:47.289Z,99642.31
2022-09-21T01:43:20.863Z,99643.19
2022-09-21T01:45:55.630Z,99643.84
2022-09-21T01:48:26.962Z,99648.56
2022-09-21T01:50:59.079Z,99630.81
2022-09-21T01:53:34.636Z,99637.94
2022-09-21T01:56:11.902Z,99623.63
2022-09-21T01:58:47.152Z,99636.25
2022-09-21T02:01:22.258Z,99634.31
2022-09-21T02:03:56.443Z,99612.94
2022-09-21T02:06:27.160Z,99630.66
2022-09-21T02:08:58.988Z,99631.56
2022-09-21T02:11:29.036Z,99635.78
2022-09-21T02:13:59.563Z,99634.16
2022-09-21T02:16:38.879Z,99630.81
2022-09-21T02:19:13.971Z,99642.31
2022-09-21T02:21:55.672Z,99639.09
2022-09-21T02:24:35.068Z,99635.63
2022-09-21T02:27:07.678Z,99632.59
2022-09-21T02:29:48.362Z,99638.56
2022-09-21T02:32:30.401Z,99637.88
2022-09-21T02:35:04.982Z,99639.72
2022-09-21T02:37:38.743Z,99642.56
2022-09-21T02:40:23.890Z,99641.94
2022-09-21T02:42:58.030Z,99640.97
2022-09-21T02:45:34.355Z,99642.41
2022-09-21T02:48:10.728Z,99636.13
2022-09-21T02:50:45.623Z,99626.94
2022-09-21T02:53:20.108Z,99620.59
2022-09-21T02:55:56.190Z,99630.00
2022-09-21T02:58:29.528Z,99636.28
2022-09-21T03:01:00.622Z,99628.88
2022-09-21T03:03:32.049Z,99633.91
2022-09-21T03:06:02.880Z,99642.19
2022-09-21T03:08:32.750Z,99636.75
2022-09-21T03:11:02.922Z,99633.00
2022-09-21T03:13:33.262Z,99625.47
2022-09-21T03:16:05.639Z,99631.91
2022-09-21T03:18:37.404Z,99630.84
2022-09-21T03:21:08.161Z,99616.59
2022-09-21T03:23:38.052Z,99629.66
2022-09-21T03:26:08.535Z,99628.72
2022-09-21T03:28:38.607Z,99619.59
2022-09-21T03:31:08.649Z,99617.84
2022-09-21T03:33:40.122Z,99614.47
2022-09-21T03:36:10.887Z,99621.38
2022-09-21T03:38:42.724Z,99619.34
2022-09-21T03:41:13.597Z,99627.34
2022-09-21T03:43:44.842Z,99624.28
2022-09-21T03:46:14.752Z,99633.00
2022-09-21T03:48:47.586Z,99637.53
2022-09-21T03:51:17.720Z,99641.19
2022-09-21T03:53:48.957Z,99640.75
2022-09-21T03:56:18.626Z,99648.63
2022-09-21T03:58:48.440Z,99647.09
2022-09-21T04:01:18.513Z,99651.75
2022-09-21T04:03:50.026Z,99655.44
2022-09-21T04:06:20.218Z,99667.19
2022-09-21T04:08:50.134Z,99663.81
2022-09-21T04:11:23.096Z,99665.09
2022-09-21T04:13:57.414Z,99658.44
2022-09-21T04:16:28.225Z,99663.56
2022-09-21T04:18:59.525Z,99665.16
2022-09-21T04:21:29.983Z,99662.03
2022-09-21T04:24:00.282Z,99668.09
2022-09-21T04:26:31.587Z,99671.59
2022-09-21T04:29:02.109Z,99673.63
2022-09-21T04:31:33.338Z,99659.81
2022-09-21T04:34:04.741Z,99679.59
2022-09-21T04:36:36.813Z,99674.00
2022-09-21T04:39:07.460Z,99667.19
2022-09-21T04:41:37.431Z,99673.22
2022-09-21T04:44:07.368Z,99676.97
2022-09-21T04:46:37.469Z,99679.50
2022-09-21T04:49:08.872Z,99649.88
2022-09-21T04:51:39.095Z,99669.16
2022-09-21T04:54:09.032Z,99670.38
2022-09-21T04:56:38.912Z,99662.56
2022-09-21T04:59:08.779Z,99661.28
2022-09-21T05:01:38.733Z,99669.72
2022-09-21T05:04:10.325Z,99669.41
2022-09-21T05:06:40.136Z,99660.34
2022-09-21T05:09:27.459Z,99662.50
2022-09-21T05:11:57.367Z,99663.09
2022-09-21T05:14:27.711Z,99658.38
2022-09-21T05:16:57.561Z,99662.28
2022-09-21T05:19:29.683Z,99657.53
2022-09-21T05:21:59.376Z,99657.53
2022-09-21T05:24:29.520Z,99651.16
2022-09-21T05:27:00.828Z,99642.03
2022-09-21T05:29:31.319Z,99642.84
2022-09-21T05:32:07.769Z,99637.81
2022-09-21T05:34:52.278Z,99640.13
2022-09-21T05:37:42.103Z,99638.72
2022-09-21T05:40:14.497Z,99640.78
2022-09-21T05:42:45.585Z,99642.38
2022-09-21T05:45:18.037Z,99649.75
2022-09-21T05:47:55.413Z,99642.53
2022-09-21T05:50:49.659Z,99647.09
2022-09-21T05:53:43.766Z,99645.44
2022-09-21T05:56:25.500Z,99648.88
2022-09-21T05:59:00.687Z,99654.09
2022-09-21T06:01:42.389Z,99641.53
2022-09-21T06:04:13.672Z,99657.84
2022-09-21T06:06:45.783Z,99645.94
2022-09-21T06:09:15.673Z,99649.34
2022-09-21T06:11:45.496Z,99651.56
2022-09-21T06:14:15.321Z,99659.22
2022-09-21T06:16:45.162Z,99662.19
2022-09-21T06:19:16.354Z,99656.84
2022-09-21T06:21:48.159Z,99663.28
2022-09-21T06:24:17.868Z,99644.78
2022-09-21T06:26:47.690Z,99663.31
2022-09-21T06:29:18.818Z,99663.97
2022-09-21T06:31:48.616Z,99668.41
2022-09-21T06:34:18.887Z,99670.50
2022-09-21T06:36:50.004Z,99670.22
2022-09-21T06:39:20.014Z,99677.63
2022-09-21T06:41:49.960Z,99676.47
2022-09-21T06:44:19.707Z,99675.13
2022-09-21T06:46:49.678Z,99670.31
2022-09-21T06:49:19.681Z,99671.72
2022-09-21T06:51:51.072Z,99667.22
2022-09-21T06:54:20.930Z,99660.19
2022-09-21T06:56:50.791Z,99658.31
2022-09-21T06:59:20.569Z,99672.91
2022-09-21T07:01:50.426Z,99671.00
2022-09-21T07:05:15.382Z,99679.50
2022-09-21T07:08:05.393Z,99673.63
2022-09-21T07:10:35.255Z,99671.38
2022-09-21T07:13:07.095Z,99676.75
2022-09-21T07:15:36.949Z,99672.13
2022-09-21T07:18:13.008Z,99673.78
2022-09-21T07:20:44.437Z,99663.94
2022-09-21T07:23:17.392Z,99672.00
2022-09-21T07:25:50.574Z,99663.63
2022-09-21T07:28:20.982Z,99658.09
2022-09-21T07:30:51.037Z,99666.88
2022-09-21T07:33:20.873Z,99676.75
2022-09-21T07:35:52.941Z,99673.91
2022-09-21T07:38:24.649Z,99667.72
2022-09-21T07:40:54.664Z,99666.19
2022-09-21T07:43:24.681Z,99663.38
2022-09-21T07:45:55.035Z,99661.03
2022-09-21T07:48:24.896Z,99666.38
2022-09-21T07:50:54.901Z,99659.03
2022-09-21T07:53:26.647Z,99666.59
2022-09-21T07:56:02.184Z,99655.53
2022-09-21T07:58:49.753Z,99665.25
2022-09-21T08:01:19.829Z,99659.19
2022-09-21T08:03:50.668Z,99662.03
2022-09-21T08:06:21.281Z,99663.91
2022-09-21T08:08:57.735Z,99663.16
2022-09-21T08:11:30.685Z,99657.78
2022-09-21T08:14:02.426Z,99656.75
2022-09-21T08:16:33.999Z,99658.09
2022-09-21T08:19:05.448Z,99656.69
2022-09-21T08:21:35.646Z,99658.72
2022-09-21T08:24:07.658Z,99655.44
2022-09-21T08:26:37.835Z,99667.28
2022-09-21T08:29:07.581Z,99662.94
2022-09-21T08:31:37.590Z,99659.75
2022-09-21T08:34:07.550Z,99660.41
2022-09-21T08:36:37.556Z,99664.59
2022-09-21T08:39:09.497Z,99658.91
2022-09-21T08:41:55.770Z,99659.22
2022-09-21T08:44:30.620Z,99663.78
2022-09-21T08:47:07.307Z,99665.78
2022-09-21T08:49:39.572Z,99656.66
2022-09-21T08:52:16.607Z,99651.38
2022-09-21T08:54:56.375Z,99645.94
2022-09-21T08:57:30.617Z,99636.63
2022-09-21T09:00:03.339Z,99649.84
2022-09-21T09:02:44.364Z,99642.59
2022-09-21T09:05:29.386Z,99639.28
2022-09-21T09:08:21.487Z,99644.00
2022-09-21T09:11:06.143Z,99637.06
2022-09-21T09:14:05.320Z,99625.53
2022-09-21T09:16:42.067Z,99624.50
2022-09-21T09:19:24.034Z,99621.13
2022-09-21T09:21:55.269Z,99620.69
2022-09-21T09:24:34.178Z,99604.34
2022-09-21T09:27:11.655Z,99613.28
2022-09-21T09:29:50.299Z,99613.91
2022-09-21T09:32:22.606Z,99611.28
2022-09-21T09:34:56.967Z,99604.88
2022-09-21T09:37:34.945Z,99594.69
2022-09-21T09:40:08.738Z,99591.63
2022-09-21T09:43:01.312Z,99594.09
2022-09-21T09:45:47.662Z,99601.59
2022-09-21T09:48:39.835Z,99602.09
2022-09-21T09:51:12.560Z,99602.44
2022-09-21T09:53:42.497Z,99593.53
2022-09-21T09:56:14.852Z,99594.41
2022-09-21T09:58:53.674Z,99595.56
2022-09-21T10:01:43.194Z,99583.28
2022-09-21T10:04:15.419Z,99573.50
2022-09-21T10:06:47.120Z,99582.75
2022-09-21T10:09:24.289Z,99604.84
2022-09-21T10:11:56.538Z,99600.41
2022-09-21T10:14:30.765Z,99590.44
2022-09-21T10:17:06.917Z,99594.16
2022-09-21T10:19:38.206Z,99588.41
2022-09-21T10:22:08.104Z,99591.69
2022-09-21T10:24:40.750Z,99589.59
2022-09-21T10:27:15.444Z,99582.53
2022-09-21T10:29:48.091Z,99586.91
2022-09-21T10:32:23.654Z,99570.91
2022-09-21T10:35:19.246Z,99582.34
2022-09-21T10:37:53.662Z,99577.25
2022-09-21T10:40:26.770Z,99576.78
2022-09-21T10:42:59.096Z,99581.41
2022-09-21T10:45:31.708Z,99583.34
2022-09-21T10:48:11.002Z,99568.94
2022-09-21T10:50:42.723Z,99571.66
2022-09-21T10:53:20.944Z,99565.06
2022-09-21T10:56:15.577Z,99565.13
2022-09-21T10:59:20.151Z,99564.31
2022-09-21T11:01:53.791Z,99555.84
2022-09-21T11:04:32.156Z,99562.72
2022-09-21T11:07:10.295Z,99541.56
2022-09-21T11:09:46.787Z,99547.19
2022-09-21T11:12:34.410Z,99534.38
2022-09-21T11:15:16.887Z,99502.44
2022-09-21T11:17:53.384Z,99532.34
2022-09-21T11:20:29.315Z,99535.44
2022-09-21T11:23:06.076Z,99503.28
2022-09-21T11:25:44.348Z,99532.81
2022-09-21T11:28:20.648Z,99513.16
2022-09-21T11:31:25.827Z,99517.63
2022-09-21T11:34:16.564Z,99506.91
2022-09-21T11:36:57.409Z,99512.78
2022-09-21T11:39:39.629Z,99518.00
2022-09-21T11:42:23.225Z,99519.47
2022-09-21T11:44:56.392Z,99517.31
2022-09-21T11:48:00.169Z,99503.44
2022-09-21T11:50:43.697Z,99458.78
2022-09-21T11:53:38.168Z,99500.28
2022-09-21T11:56:49.233Z,99499.22
2022-09-21T11:59:35.248Z,99494.69
2022-09-21T12:02:31.526Z,99489.81
2022-09-21T12:05:07.959Z,99479.06
2022-09-21T12:08:04.707Z,99480.66
2022-09-21T12:10:41.365Z,99459.97
2022-09-21T12:13:22.671Z,99471.66
2022-09-21T12:16:00.008Z,99462.75
2022-09-21T12:18:43.801Z,99465.34
2022-09-21T12:21:20.906Z,99469.16
2022-09-21T12:23:55.211Z,99464.25
2022-09-21T12:26:29.190Z,99464.13
2022-09-21T12:29:03.510Z,99455.50
2022-09-21T12:31:40.788Z,99462.75
2022-09-21T12:34:17.135Z,99464.44
2022-09-21T12:36:56.702Z,99456.75
2022-09-21T12:39:32.563Z,99453.84
2022-09-21T12:42:08.788Z,99449.50
2022-09-21T12:44:53.007Z,99455.66
2022-09-21T12:47:27.282Z,99441.59
2022-09-21T12:50:02.915Z,99439.28
2022-09-21T12:52:34.997Z,99450.59
2022-09-21T12:55:32.270Z,99450.59
2022-09-21T12:58:15.576Z,99439.72
2022-09-21T13:00:53.931Z,99448.03
2022-09-21T13:03:32.048Z,99451.75
2022-09-21T13:06:35.095Z,99451.75
2022-09-21T13:09:09.971Z,99462.22
2022-09-21T13:12:00.291Z,99464.06
2022-09-21T13:14:34.782Z,99446.44
2022-09-21T13:17:06.082Z,99466.97
2022-09-21T13:19:36.875Z,99465.78
2022-09-21T13:22:20.691Z,99457.88
2022-09-21T13:25:03.083Z,99463.41
2022-09-21T13:28:01.429Z,99469.53
2022-09-21T13:30:40.540Z,99477.59
2022-09-21T13:33:32.344Z,99484.78
2022-09-21T13:36:30.141Z,99474.72
2022-09-21T13:39:21.175Z,99503.88
2022-09-21T13:42:02.901Z,99498.44
2022-09-21T13:44:42.444Z,99485.84
2022-09-21T13:47:12.504Z,99499.44
2022-09-21T13:49:50.904Z,99513.47
2022-09-21T13:52:30.083Z,99517.19
2022-09-21T13:55:02.436Z,99523.16
2022-09-21T13:57:38.015Z,99524.25
2022-09-21T14:00:33.403Z,99530.09
2022-09-21T14:03:07.714Z,99529.25
2022-09-21T14:05:42.690Z,99536.13
2022-09-21T14:08:24.374Z,99477.13
2022-09-21T14:10:59.213Z,99512.53
2022-09-21T14:13:35.839Z,99507.19
2022-09-21T14:16:45.574Z,99499.00
2022-09-21T14:19:51.203Z,99495.53
2022-09-21T14:22:42.718Z,99497.66
2022-09-21T14:25:51.138Z,99506.84
2022-09-21T14:28:35.196Z,99513.03
2022-09-21T14:31:09.377Z,99515.78
2022-09-21T14:33:47.752Z,99512.28
2022-09-21T14:36:22.498Z,99511.25
2022-09-21T14:39:00.504Z,99514.59
2022-09-21T14:41:34.553Z,99517.84
2022-09-21T14:44:04.646Z,99510.59
2022-09-21T14:46:51.474Z,99519.03
2022-09-21T14:49:34.906Z,99532.53
2022-09-21T14:52:22.236Z,99525.09
2022-09-21T14:55:03.277Z,99529.25
2022-09-21T14:57:48.476Z,99544.44
2022-09-21T15:00:23.435Z,99543.44
2022-09-21T15:03:25.925Z,99551.84
2022-09-21T15:06:22.278Z,99561.16
2022-09-21T15:09:28.228Z,99572.97
2022-09-21T15:12:07.259Z,99574.31
2022-09-21T15:14:42.491Z,99573.97
2022-09-21T15:17:27.292Z,99576.09
2022-09-21T15:20:00.833Z,99600.50
2022-09-21T15:22:32.009Z,99613.63
2022-09-21T15:25:06.025Z,99604.13
2022-09-21T15:27:37.858Z,99622.69
2022-09-21T15:30:19.436Z,99625.03
2022-09-21T15:32:54.228Z,99609.50
2022-09-21T15:35:27.748Z,99589.41
2022-09-21T15:38:00.054Z,99589.50
2022-09-21T15:40:33.928Z,99600.38
2022-09-21T15:43:06.724Z,99601.16
2022-09-21T15:45:51.781Z,99591.28
2022-09-21T15:48:22.230Z,99591.59
2022-09-21T15:50:57.944Z,99591.84
2022-09-21T15:53:31.943Z,99586.47
2022-09-21T15:56:03.037Z,99588.69
2022-09-21T15:58:37.305Z,99595.38
2022-09-21T16:01:12.648Z,99600.25
2022-09-21T16:03:45.193Z,99602.69
2022-09-21T16:06:28.728Z,99598.19
2022-09-21T16:08:58.765Z,99608.59
2022-09-21T16:11:37.837Z,99611.59
2022-09-21T16:14:30.406Z,99603.25
2022-09-21T16:17:26.378Z,99605.31
2022-09-21T16:20:16.065Z,99548.94
2022-09-21T16:22:48.098Z,99603.75
2022-09-21T16:25:25.964Z,99606.25
2022-09-21T16:27:58.671Z,99601.94
2022-09-21T16:30:51.165Z,99601.44
2022-09-21T16:33:36.667Z,99590.28
2022-09-21T16:36:31.724Z,99608.13
2022-09-21T16:39:06.137Z,99608.69
2022-09-21T16:41:39.924Z,99625.91
2022-09-21T16:44:16.305Z,99628.31
2022-09-21T16:46:49.193Z,99628.38
2022-09-21T16:49:21.824Z,99624.63
2022-09-21T16:51:52.193Z,99639.50
2022-09-21T16:54:25.296Z,99645.13
2022-09-21T16:56:57.414Z,99650.00
2022-09-21T16:59:27.966Z,99650.84
2022-09-21T17:02:00.672Z,99631.16
2022-09-21T17:04:32.789Z,99648.13
2022-09-21T17:07:05.046Z,99664.22
2022-09-21T17:09:38.377Z,99666.38
2022-09-21T17:12:11.162Z,99670.50
2022-09-21T17:14:46.703Z,99660.34
2022-09-21T17:17:21.377Z,99681.47
2022-09-21T17:19:54.191Z,99683.19
2022-09-21T17:22:25.523Z,99684.88
2022-09-21T17:24:55.933Z,99687.00
2022-09-21T17:27:32.143Z,99694.09
2022-09-21T17:30:03.560Z,99694.53
2022-09-21T17:32:38.533Z,99699.81
2022-09-21T17:35:17.012Z,99707.66
2022-09-21T17:37:47.251Z,99704.56
2022-09-21T17:40:18.168Z,99709.25
2022-09-21T17:42:48.672Z,99706.72
2022-09-21T17:45:27.065Z,99708.59
2022-09-21T17:47:59.027Z,99708.69
2022-09-21T17:50:29.647Z,99706.31
2022-09-21T17:53:17.548Z,99713.03
2022-09-21T17:55:54.519Z,99709.22
2022-09-21T17:58:42.860Z,99700.50
2022-09-21T18:01:23.668Z,99709.31
2022-09-21T18:03:55.662Z,99703.41
2022-09-21T18:06:26.923Z,99706.53
2022-09-21T18:08:57.921Z,99703.13
2022-09-21T18:12:04.569Z,99699.28
2022-09-21T18:14:45.747Z,99699.06
2022-09-21T18:17:29.613Z,99697.97
2022-09-21T18:20:14.156Z,99704.94
2022-09-21T18:22:55.215Z,99697.66
2022-09-21T18:25:30.672Z,99700.97
2022-09-21T18:28:07.919Z,99704.41
2022-09-21T18:30:41.482Z,99702.19
2022-09-21T18:33:21.719Z,99683.78
2022-09-21T18:36:03.848Z,99700.56
2022-09-21T18:38:41.498Z,99692.63
2022-09-21T18:41:19.391Z,99699.66
2022-09-21T18:44:04.689Z,99694.72
2022-09-21T18:46:48.961Z,99687.41
2022-09-21T18:49:23.727Z,99684.72
2022-09-21T18:52:00.788Z,99689.47
2022-09-21T18:54:31.673Z,99688.06
2022-09-21T18:57:02.009Z,99694.22
2022-09-21T18:59:32.323Z,99691.47
2022-09-21T19:02:03.001Z,99690.66
2022-09-21T19:04:34.240Z,99698.03
2022-09-21T19:07:13.778Z,99695.66
2022-09-21T19:09:52.557Z,99697.09
2022-09-21T19:12:32.658Z,99682.63
2022-09-21T19:15:17.121Z,99700.88
2022-09-21T19:18:01.606Z,99648.59
2022-09-21T19:20:58.013Z,99703.75
2022-09-21T19:23:41.841Z,99702.91
2022-09-21T19:26:23.298Z,99703.91
2022-09-21T19:29:10.374Z,99698.13
2022-09-21T19:31:40.618Z,99695.25
2022-09-21T19:34:14.925Z,99695.56
2022-09-21T19:36:47.389Z,99688.75
2022-09-21T19:39:19.828Z,99682.25
2022-09-21T19:42:03.322Z,99682.25
2022-09-21T19:44:50.043Z,99672.66
2022-09-21T19:47:29.331Z,99669.31
2022-09-21T19:50:16.641Z,99677.66
2022-09-21T19:52:48.525Z,99678.28
2022-09-21T19:55:47.646Z,99681.94
2022-09-21T19:58:35.531Z,99690.59
2022-09-21T20:01:05.784Z,99686.47
2022-09-21T20:03:40.611Z,99685.91
2022-09-21T20:06:18.024Z,99690.66
2022-09-21T20:08:53.912Z,99690.75
2022-09-21T20:11:35.871Z,99696.19
2022-09-21T20:14:19.235Z,99699.44
2022-09-21T20:16:51.851Z,99706.09
2022-09-21T20:19:35.187Z,99699.63
2022-09-21T20:22:13.299Z,99705.00
2022-09-21T20:24:52.180Z,99701.47
2022-09-21T20:27:35.081Z,99709.81
2022-09-21T20:30:06.953Z,99703.88
2022-09-21T20:32:38.411Z,99706.88
2022-09-21T20:35:16.044Z,99697.13
2022-09-21T20:37:46.730Z,99705.91
2022-09-21T20:40:17.314Z,99699.44
2022-09-21T20:42:48.589Z,99714.53
2022-09-21T20:45:19.142Z,99712.44
2022-09-21T20:47:50.040Z,99692.19
2022-09-21T20:50:20.655Z,99712.44
2022-09-21T20:52:50.685Z,99713.13
2022-09-21T20:55:20.530Z,99714.25
2022-09-21T20:57:53.227Z,99720.28
2022-09-21T21:00:23.052Z,99718.19
2022-09-21T21:02:53.315Z,99717.66
2022-09-21T21:05:23.001Z,99717.06
2022-09-21T21:07:53.171Z,99711.28
2022-09-21T21:10:23.262Z,99716.22
2022-09-21T21:12:54.537Z,99712.84
2022-09-21T21:15:24.466Z,99710.09
2022-09-21T21:17:54.512Z,99716.28
2022-09-21T21:20:24.431Z,99704.00
2022-09-21T21:22:54.828Z,99705.63
2022-09-21T21:25:24.616Z,99699.75
2022-09-21T21:27:59.206Z,99712.84
2022-09-21T21:30:28.991Z,99714.69
2022-09-21T21:32:59.065Z,99714.13
2022-09-21T21:35:30.173Z,99713.00
2022-09-21T21:37:59.962Z,99722.72
2022-09-21T21:40:30.643Z,99720.66
2022-09-21T21:43:03.874Z,99726.25
2022-09-21T21:45:33.990Z,99725.00
2022-09-21T21:48:04.806Z,99729.63
2022-09-21T21:50:35.911Z,99730.06
2022-09-21T21:53:06.616Z,99730.31
2022-09-21T21:55:36.539Z,99729.19
2022-09-21T21:58:07.807Z,99728.78
2022-09-21T22:00:37.600Z,99731.03
2022-09-21T22:03:07.346Z,99727.50
2022-09-21T22:05:38.404Z,99728.78
2022-09-21T22:08:08.495Z,99719.53
2022-09-21T22:10:38.265Z,99729.94
2022-09-21T22:13:12.703Z,99724.47
2022-09-21T22:15:42.842Z,99727.84
2022-09-21T22:18:12.767Z,99722.22
2022-09-21T22:20:42.666Z,99716.44
2022-09-21T22:23:12.368Z,99726.44
2022-09-21T22:25:42.915Z,99721.53
2022-09-21T22:28:14.215Z,99727.13
2022-09-21T22:30:49.878Z,99718.41
2022-09-21T22:33:19.639Z,99720.56
2022-09-21T22:35:49.422Z,99717.69
2022-09-21T22:38:19.186Z,99721.38
2022-09-21T22:40:49.652Z,99709.94
2022-09-21T22:43:20.995Z,99713.91
2022-09-21T22:45:50.770Z,99713.06
2022-09-21T22:48:20.588Z,99713.88
2022-09-21T22:50:50.391Z,99710.94
2022-09-21T22:53:20.522Z,99712.47
2022-09-21T22:55:50.301Z,99705.56
2022-09-21T22:58:21.472Z,99713.34
2022-09-21T23:00:51.275Z,99707.19
2022-09-21T23:03:21.009Z,99705.31
2022-09-21T23:05:57.391Z,99709.28
2022-09-21T23:08:28.138Z,99708.84
2022-09-21T23:11:05.876Z,99702.81
2022-09-21T23:13:37.249Z,99696.56
2022-09-21T23:16:09.429Z,99701.69
2022-09-21T23:18:40.775Z,99703.25
2022-09-21T23:21:13.285Z,99698.03
2022-09-21T23:23:43.638Z,99697.59
2022-09-21T23:26:15.352Z,99700.66
2022-09-21T23:28:52.623Z,99700.69
2022-09-21T23:31:22.977Z,99700.66
2022-09-21T23:33:54.375Z,99697.84
2022-09-21T23:36:27.583Z,99694.34
2022-09-21T23:38:58.059Z,99672.13
2022-09-21T23:41:29.701Z,99695.06
2022-09-21T23:44:01.611Z,99691.25
2022-09-21T23:46:33.912Z,99667.78
2022-09-21T23:49:04.246Z,99691.94
2022-09-21T23:51:34.464Z,99686.59
2022-09-21T23:54:04.856Z,99685.34
2022-09-21T23:56:35.364Z,99691.13
2022-09-21T23:59:06.991Z,99685.78
